createdAt,value
2018-08-24T00:01:02.504Z,22.90
2018-08-24T00:03:29.750Z,22.90
2018-08-24T00:05:56.954Z,22.70
2018-08-24T00:08:24.161Z,22.60
2018-08-24T00:10:51.460Z,22.60
2018-08-24T00:13:18.629Z,22.60
2018-08-24T00:15:45.805Z,22.50
2018-08-24T00:18:12.994Z,22.60
2018-08-24T00:20:40.225Z,22.70
2018-08-24T00:23:07.399Z,22.70
2018-08-24T00:25:35.689Z,22.70
2018-08-24T00:28:02.890Z,22.70
2018-08-24T00:30:30.099Z,22.70
2018-08-24T00:33:02.379Z,22.50
2018-08-24T00:35:29.533Z,22.50
2018-08-24T00:37:56.662Z,22.40
2018-08-24T00:40:23.780Z,22.50
2018-08-24T00:42:51.006Z,22.50
2018-08-24T00:45:18.167Z,22.50
2018-08-24T00:47:45.258Z,22.50
2018-08-24T00:50:12.381Z,22.40
2018-08-24T00:52:39.601Z,22.30
2018-08-24T00:55:06.767Z,22.30
2018-08-24T00:57:33.989Z,22.30
2018-08-24T01:00:01.187Z,22.40
2018-08-24T01:02:28.338Z,22.40
2018-08-24T01:04:56.542Z,22.40
2018-08-24T01:07:23.762Z,22.40
2018-08-24T01:09:50.890Z,22.40
2018-08-24T01:12:18.045Z,22.20
2018-08-24T01:14:46.354Z,22.10
2018-08-24T01:17:19.099Z,22.10
2018-08-24T01:19:46.511Z,22.10
2018-08-24T01:22:13.980Z,22.10
2018-08-24T01:24:41.117Z,22.00
2018-08-24T01:27:08.656Z,22.10
2018-08-24T01:29:37.233Z,22.20
2018-08-24T01:32:04.858Z,22.30
2018-08-24T01:34:32.489Z,22.30
2018-08-24T01:36:59.754Z,22.30
2018-08-24T01:39:26.997Z,22.30
2018-08-24T01:41:54.157Z,22.30
2018-08-24T01:44:21.319Z,22.20
2018-08-24T01:46:48.521Z,22.20
2018-08-24T01:49:15.692Z,22.20
2018-08-24T01:51:42.888Z,22.20
2018-08-24T01:54:10.029Z,22.30
2018-08-24T01:56:37.195Z,22.20
2018-08-24T01:59:04.530Z,22.20
2018-08-24T02:01:31.645Z,22.30
2018-08-24T02:03:58.851Z,22.30
2018-08-24T02:06:25.982Z,22.30
2018-08-24T02:08:53.180Z,22.30
2018-08-24T02:11:26.106Z,22.30
2018-08-24T02:13:59.073Z,22.30
2018-08-24T02:16:30.860Z,22.30
2018-08-24T02:19:04.792Z,22.30
2018-08-24T02:21:37.793Z,22.20
2018-08-24T02:24:06.368Z,22.10
2018-08-24T02:26:33.660Z,22.00
2018-08-24T02:29:01.094Z,22.00
2018-08-24T02:31:32.846Z,22.00
2018-08-24T02:34:00.077Z,22.00
2018-08-24T02:36:27.274Z,22.00
2018-08-24T02:38:54.430Z,21.90
2018-08-24T02:41:21.777Z,21.90
2018-08-24T02:43:55.650Z,21.90
2018-08-24T02:46:23.095Z,21.80
2018-08-24T02:48:50.275Z,21.80
2018-08-24T02:51:17.374Z,21.80
2018-08-24T02:53:44.595Z,21.80
2018-08-24T02:56:11.799Z,21.90
2018-08-24T02:58:39.026Z,21.80
2018-08-24T03:01:06.179Z,21.70
2018-08-24T03:03:33.467Z,21.50
2018-08-24T03:06:00.663Z,21.50
2018-08-24T03:08:27.799Z,21.50
2018-08-24T03:10:54.953Z,21.60
2018-08-24T03:13:22.076Z,21.40
2018-08-24T03:15:49.241Z,21.40
2018-08-24T03:18:18.490Z,21.30
2018-08-24T03:20:45.665Z,21.10
2018-08-24T03:23:12.882Z,21.00
2018-08-24T03:25:40.022Z,20.90
2018-08-24T03:28:07.173Z,20.90
2018-08-24T03:30:34.313Z,21.00
2018-08-24T03:33:01.476Z,21.10
2018-08-24T03:35:28.708Z,21.10
2018-08-24T03:37:55.868Z,21.10
2018-08-24T03:40:22.992Z,21.00
2018-08-24T03:42:50.265Z,21.00
2018-08-24T03:45:17.487Z,21.00
2018-08-24T03:47:45.773Z,21.00
2018-08-24T03:50:12.904Z,20.90
2018-08-24T03:52:40.161Z,20.70
2018-08-24T03:55:07.360Z,20.60
2018-08-24T03:57:34.661Z,20.50
2018-08-24T04:00:01.837Z,20.60
2018-08-24T04:02:28.960Z,20.60
2018-08-24T04:04:56.130Z,20.60
2018-08-24T04:07:24.254Z,20.60
2018-08-24T04:09:51.458Z,20.50
2018-08-24T04:12:18.788Z,20.30
2018-08-24T04:14:45.939Z,20.40
2018-08-24T04:17:18.852Z,20.40
2018-08-24T04:19:45.995Z,20.50
2018-08-24T04:22:13.125Z,20.50
2018-08-24T04:24:40.295Z,20.40
2018-08-24T04:27:07.491Z,20.30
2018-08-24T04:29:34.604Z,20.20
2018-08-24T04:32:01.904Z,20.20
2018-08-24T04:34:35.790Z,20.20
2018-08-24T04:37:02.958Z,20.10
2018-08-24T04:39:30.117Z,20.20
2018-08-24T04:41:57.288Z,20.30
2018-08-24T04:44:24.566Z,20.30
2018-08-24T04:46:55.625Z,20.30
2018-08-24T04:49:29.061Z,20.30
2018-08-24T04:52:01.457Z,20.30
2018-08-24T04:54:28.644Z,20.30
2018-08-24T04:56:55.857Z,20.00
2018-08-24T04:59:24.036Z,19.90
2018-08-24T05:01:51.315Z,20.00
2018-08-24T05:04:18.593Z,20.10
2018-08-24T05:06:45.848Z,19.90
2018-08-24T05:09:13.034Z,20.00
2018-08-24T05:11:40.552Z,20.00
2018-08-24T05:14:08.361Z,20.00
2018-08-24T05:16:35.548Z,20.10
2018-08-24T05:19:02.879Z,19.90
2018-08-24T05:21:30.061Z,20.00
2018-08-24T05:23:57.177Z,20.20
2018-08-24T05:26:24.340Z,20.20
2018-08-24T05:28:51.473Z,20.30
2018-08-24T05:31:18.708Z,20.20
2018-08-24T05:33:45.892Z,20.30
2018-08-24T05:36:13.045Z,20.40
2018-08-24T05:38:40.297Z,20.40
2018-08-24T05:41:07.595Z,20.30
2018-08-24T05:43:34.844Z,20.00
2018-08-24T05:46:02.071Z,20.10
2018-08-24T05:48:29.324Z,20.30
2018-08-24T05:50:56.525Z,20.20
2018-08-24T05:53:23.719Z,20.20
2018-08-24T05:55:50.851Z,20.20
2018-08-24T05:58:17.988Z,20.10
2018-08-24T06:00:45.859Z,20.00
2018-08-24T06:03:13.096Z,20.10
2018-08-24T06:05:46.139Z,19.90
2018-08-24T06:08:13.321Z,19.90
2018-08-24T06:10:40.459Z,20.10
2018-08-24T06:13:07.691Z,20.30
2018-08-24T06:15:34.838Z,20.40
2018-08-24T06:18:02.755Z,20.30
2018-08-24T06:20:29.997Z,20.50
2018-08-24T06:22:57.249Z,20.60
2018-08-24T06:25:24.478Z,20.60
2018-08-24T06:27:51.669Z,20.60
2018-08-24T06:30:18.851Z,20.70
2018-08-24T06:32:46.022Z,20.70
2018-08-24T06:35:13.325Z,20.80
2018-08-24T06:37:41.579Z,20.90
2018-08-24T06:40:08.800Z,21.00
2018-08-24T06:42:35.945Z,20.90
2018-08-24T06:45:03.278Z,20.80
2018-08-24T06:47:32.745Z,20.80
2018-08-24T06:49:59.896Z,21.00
2018-08-24T06:52:27.212Z,21.10
2018-08-24T06:54:54.751Z,21.10
2018-08-24T06:57:21.933Z,21.30
2018-08-24T06:59:49.468Z,21.40
2018-08-24T07:02:16.589Z,21.20
2018-08-24T07:04:43.715Z,21.20
2018-08-24T07:07:10.934Z,21.20
2018-08-24T07:09:39.045Z,21.20
2018-08-24T07:12:08.040Z,21.30
2018-08-24T07:14:35.244Z,21.20
2018-08-24T07:17:02.389Z,21.00
2018-08-24T07:19:30.352Z,20.90
2018-08-24T07:21:57.528Z,21.00
2018-08-24T07:24:25.107Z,20.90
2018-08-24T07:26:52.238Z,20.90
2018-08-24T07:29:19.550Z,20.80
2018-08-24T07:31:46.700Z,20.80
2018-08-24T07:34:13.814Z,20.60
2018-08-24T07:36:40.960Z,20.50
2018-08-24T07:39:09.851Z,20.30
2018-08-24T07:41:37.049Z,20.30
2018-08-24T07:44:04.419Z,20.30
2018-08-24T07:46:32.156Z,20.30
2018-08-24T07:48:59.299Z,20.20
2018-08-24T07:51:26.423Z,20.20
2018-08-24T07:53:53.532Z,20.20
2018-08-24T07:56:20.683Z,20.30
2018-08-24T07:58:47.804Z,20.30
2018-08-24T08:01:14.942Z,20.40
2018-08-24T08:03:42.119Z,20.40
2018-08-24T08:06:09.273Z,20.30
2018-08-24T08:08:36.384Z,20.20
2018-08-24T08:11:03.792Z,20.20
2018-08-24T08:13:30.987Z,20.30
2018-08-24T08:15:58.099Z,20.30
2018-08-24T08:18:25.229Z,20.40
2018-08-24T08:20:52.516Z,20.50
2018-08-24T08:23:19.725Z,20.30
2018-08-24T08:25:46.928Z,20.30
2018-08-24T08:28:14.086Z,20.30
2018-08-24T08:30:41.230Z,20.40
2018-08-24T08:33:08.445Z,20.30
2018-08-24T08:35:35.546Z,20.30
2018-08-24T08:38:02.729Z,20.50
2018-08-24T08:40:29.859Z,20.50
2018-08-24T08:42:56.980Z,20.40
2018-08-24T08:45:25.097Z,20.40
2018-08-24T08:47:52.268Z,20.40
2018-08-24T08:50:19.517Z,20.50
2018-08-24T08:52:46.745Z,20.60
2018-08-24T08:55:13.930Z,20.50
2018-08-24T08:57:41.113Z,20.50
2018-08-24T09:00:08.275Z,20.60
2018-08-24T09:02:36.430Z,20.60
2018-08-24T09:05:03.606Z,20.70
2018-08-24T09:07:30.778Z,20.70
2018-08-24T09:09:57.994Z,20.60
2018-08-24T09:12:25.133Z,20.60
2018-08-24T09:14:52.633Z,20.70
2018-08-24T09:17:25.412Z,20.70
2018-08-24T09:19:58.385Z,20.70
2018-08-24T09:22:31.325Z,20.40
2018-08-24T09:25:04.299Z,20.20
2018-08-24T09:27:37.557Z,20.00
2018-08-24T09:30:05.436Z,20.00
2018-08-24T09:32:32.648Z,19.60
2018-08-24T09:34:59.807Z,19.40
2018-08-24T09:37:32.672Z,19.30
2018-08-24T09:39:59.887Z,19.20
2018-08-24T09:42:26.990Z,19.20
2018-08-24T09:44:54.274Z,19.20
2018-08-24T09:47:27.346Z,19.20
2018-08-24T09:49:54.520Z,19.20
2018-08-24T09:52:25.755Z,19.00
2018-08-24T09:54:53.001Z,18.70
2018-08-24T09:57:20.171Z,18.60
2018-08-24T09:59:47.463Z,18.60
2018-08-24T10:02:29.377Z,18.60
2018-08-24T10:05:02.729Z,18.50
2018-08-24T10:07:31.831Z,18.30
2018-08-24T10:09:59.417Z,18.30
2018-08-24T10:12:30.219Z,18.40
2018-08-24T10:14:57.309Z,18.30
2018-08-24T10:17:25.698Z,18.20
2018-08-24T10:19:54.113Z,18.40
2018-08-24T10:22:21.771Z,18.40
2018-08-24T10:24:48.961Z,18.40
2018-08-24T10:27:16.578Z,18.50
2018-08-24T10:29:44.712Z,18.50
2018-08-24T10:32:11.789Z,18.50
2018-08-24T10:34:38.955Z,18.60
2018-08-24T10:37:06.171Z,18.70
2018-08-24T10:39:33.310Z,18.70
2018-08-24T10:42:00.453Z,18.70
2018-08-24T10:44:27.628Z,18.70
2018-08-24T10:46:54.761Z,18.80
2018-08-24T10:49:22.355Z,18.80
2018-08-24T10:51:49.468Z,18.90
2018-08-24T10:54:16.597Z,19.00
2018-08-24T10:56:43.802Z,18.90
2018-08-24T10:59:10.968Z,18.90
2018-08-24T11:01:38.300Z,18.80
2018-08-24T11:04:05.539Z,18.60
2018-08-24T11:06:32.711Z,18.50
2018-08-24T11:08:59.816Z,18.60
2018-08-24T11:11:26.988Z,18.60
2018-08-24T11:13:54.246Z,19.00
2018-08-24T11:16:22.021Z,19.10
2018-08-24T11:18:50.351Z,19.10
2018-08-24T11:21:17.521Z,18.90
2018-08-24T11:23:44.708Z,18.70
2018-08-24T11:26:12.023Z,18.70
2018-08-24T11:28:40.153Z,19.00
2018-08-24T11:31:07.321Z,19.50
2018-08-24T11:33:34.409Z,19.80
2018-08-24T11:36:01.642Z,20.00
2018-08-24T11:38:28.730Z,20.20
2018-08-24T11:40:55.892Z,20.10
2018-08-24T11:43:22.955Z,20.30
2018-08-24T11:45:50.184Z,20.30
2018-08-24T11:48:17.562Z,20.70
2018-08-24T11:50:44.746Z,21.00
2018-08-24T11:53:11.905Z,21.00
2018-08-24T11:55:38.968Z,21.00
2018-08-24T11:58:06.128Z,20.80
2018-08-24T12:00:33.974Z,20.90
2018-08-24T12:03:02.037Z,21.00
2018-08-24T12:05:29.774Z,20.90
2018-08-24T12:07:56.960Z,20.70
2018-08-24T12:10:24.080Z,20.80
2018-08-24T12:12:51.263Z,21.00
2018-08-24T12:15:18.396Z,20.90
2018-08-24T12:17:45.532Z,21.20
2018-08-24T12:20:12.761Z,21.40
2018-08-24T12:22:39.896Z,21.60
2018-08-24T12:25:07.080Z,21.40
2018-08-24T12:27:34.247Z,21.50
2018-08-24T12:30:01.758Z,21.60
2018-08-24T12:32:28.948Z,21.90
2018-08-24T12:34:56.094Z,22.00
2018-08-24T12:37:23.403Z,22.00
2018-08-24T12:39:50.564Z,22.30
2018-08-24T12:42:17.696Z,22.70
2018-08-24T12:44:44.968Z,23.00
2018-08-24T12:47:12.587Z,23.30
2018-08-24T12:49:40.017Z,23.30
2018-08-24T12:52:07.231Z,23.30
2018-08-24T12:54:34.381Z,23.40
2018-08-24T12:57:02.108Z,23.20
2018-08-24T12:59:29.287Z,22.70
2018-08-24T13:01:56.410Z,22.60
2018-08-24T13:04:23.582Z,22.60
2018-08-24T13:06:50.728Z,22.60
2018-08-24T13:09:17.901Z,22.30
2018-08-24T13:11:44.991Z,22.50
2018-08-24T13:14:12.232Z,23.00
2018-08-24T13:16:39.418Z,23.20
2018-08-24T13:19:06.801Z,23.40
2018-08-24T13:21:33.961Z,23.70
2018-08-24T13:24:01.048Z,23.90
2018-08-24T13:26:28.257Z,24.10
2018-08-24T13:28:55.426Z,24.10
2018-08-24T13:31:22.614Z,23.90
2018-08-24T13:33:49.848Z,23.70
2018-08-24T13:36:17.027Z,23.50
2018-08-24T13:38:44.226Z,23.40
2018-08-24T13:41:11.286Z,23.30
2018-08-24T13:43:38.528Z,23.20
2018-08-24T13:46:05.824Z,23.00
2018-08-24T13:48:33.002Z,22.90
2018-08-24T13:51:00.156Z,23.10
2018-08-24T13:53:27.301Z,23.20
2018-08-24T13:55:54.479Z,23.30
2018-08-24T13:58:21.718Z,23.20
2018-08-24T14:00:49.241Z,23.30
2018-08-24T14:03:16.476Z,23.40
2018-08-24T14:05:43.593Z,23.30
2018-08-24T14:08:10.724Z,23.70
2018-08-24T14:10:37.896Z,23.90
2018-08-24T14:13:05.183Z,24.00
2018-08-24T14:15:32.300Z,24.00
2018-08-24T14:17:59.498Z,24.00
2018-08-24T14:20:26.656Z,23.70
2018-08-24T14:22:53.848Z,23.80
2018-08-24T14:25:21.056Z,24.00
2018-08-24T14:27:48.188Z,23.90
2018-08-24T14:30:15.358Z,23.80
2018-08-24T14:32:42.549Z,23.80
2018-08-24T14:35:10.395Z,23.60
2018-08-24T14:37:37.705Z,23.80
2018-08-24T14:40:05.009Z,23.70
2018-08-24T14:42:32.208Z,23.60
2018-08-24T14:44:59.692Z,23.60
2018-08-24T14:47:26.921Z,23.40
2018-08-24T14:49:54.070Z,23.40
2018-08-24T14:52:21.201Z,23.30
2018-08-24T14:54:48.446Z,23.20
2018-08-24T14:57:15.558Z,23.30
2018-08-24T14:59:42.718Z,23.20
2018-08-24T15:02:09.934Z,23.10
2018-08-24T15:04:37.229Z,23.10
2018-08-24T15:07:04.990Z,23.20
2018-08-24T15:09:32.128Z,23.30
2018-08-24T15:11:59.268Z,23.30
2018-08-24T15:14:26.414Z,23.30
2018-08-24T15:16:53.543Z,23.30
2018-08-24T15:19:20.689Z,23.30
2018-08-24T15:21:47.851Z,23.40
2018-08-24T15:24:15.108Z,23.60
2018-08-24T15:26:42.364Z,23.60
2018-08-24T15:29:09.562Z,23.70
2018-08-24T15:31:36.769Z,23.90
2018-08-24T15:34:04.602Z,23.80
2018-08-24T15:36:32.752Z,23.70
2018-08-24T15:39:00.029Z,23.80
2018-08-24T15:41:28.751Z,23.70
2018-08-24T15:43:55.940Z,23.60
2018-08-24T15:46:23.474Z,23.40
2018-08-24T15:48:50.813Z,23.30
2018-08-24T15:51:17.931Z,23.30
2018-08-24T15:53:45.116Z,23.30
2018-08-24T15:56:12.398Z,23.20
2018-08-24T15:58:39.554Z,23.10
2018-08-24T16:01:06.747Z,23.00
2018-08-24T16:03:33.944Z,23.10
2018-08-24T16:06:01.117Z,23.10
2018-08-24T16:08:28.304Z,23.20
2018-08-24T16:10:55.520Z,23.10
2018-08-24T16:13:22.791Z,23.00
2018-08-24T16:15:49.909Z,23.00
2018-08-24T16:18:23.303Z,23.00
2018-08-24T16:20:50.849Z,23.00
2018-08-24T16:23:18.145Z,22.90
2018-08-24T16:25:45.689Z,22.80
2018-08-24T16:28:12.874Z,22.80
2018-08-24T16:30:40.270Z,22.80
2018-08-24T16:33:07.397Z,22.80
2018-08-24T16:35:34.600Z,22.80
2018-08-24T16:38:01.801Z,22.70
2018-08-24T16:40:29.045Z,22.60
2018-08-24T16:42:56.232Z,22.60
2018-08-24T16:45:23.378Z,22.60
2018-08-24T16:47:50.532Z,22.50
2018-08-24T16:50:17.708Z,22.50
2018-08-24T16:52:44.997Z,22.50
2018-08-24T16:55:12.124Z,22.50
2018-08-24T16:57:39.528Z,22.50
2018-08-24T17:00:07.025Z,22.50
2018-08-24T17:02:34.296Z,22.30
2018-08-24T17:05:02.935Z,22.30
2018-08-24T17:07:30.921Z,22.30
2018-08-24T17:09:59.788Z,22.20
2018-08-24T17:12:27.500Z,22.20
2018-08-24T17:14:54.742Z,22.20
2018-08-24T17:17:21.968Z,22.20
2018-08-24T17:19:51.952Z,22.20
2018-08-24T17:22:19.274Z,22.20
2018-08-24T17:24:46.517Z,22.20
2018-08-24T17:27:13.972Z,22.20
2018-08-24T17:29:41.231Z,22.10
2018-08-24T17:32:08.427Z,22.10
2018-08-24T17:34:35.669Z,22.10
2018-08-24T17:37:02.961Z,22.10
2018-08-24T17:39:30.185Z,22.00
2018-08-24T17:41:58.518Z,22.00
2018-08-24T17:44:25.647Z,22.10
2018-08-24T17:46:52.982Z,22.10
2018-08-24T17:49:20.132Z,22.10
2018-08-24T17:51:47.436Z,22.10
2018-08-24T17:54:14.688Z,22.10
2018-08-24T17:56:41.885Z,22.10
2018-08-24T17:59:09.469Z,22.00
2018-08-24T18:01:36.701Z,22.00
2018-08-24T18:04:03.920Z,22.00
2018-08-24T18:06:31.136Z,21.90
2018-08-24T18:08:58.299Z,21.80
2018-08-24T18:11:25.565Z,21.80
2018-08-24T18:13:52.782Z,21.60
2018-08-24T18:16:20.285Z,21.50
2018-08-24T18:18:48.067Z,21.50
2018-08-24T18:21:15.245Z,21.50
2018-08-24T18:23:42.389Z,21.50
2018-08-24T18:26:10.301Z,21.40
2018-08-24T18:28:37.743Z,21.40
2018-08-24T18:31:05.727Z,21.40
2018-08-24T18:33:33.021Z,21.50
2018-08-24T18:36:00.209Z,21.40
2018-08-24T18:38:27.441Z,21.30
2018-08-24T18:40:54.609Z,21.30
2018-08-24T18:43:22.580Z,21.30
2018-08-24T18:45:49.826Z,21.30
2018-08-24T18:48:17.026Z,21.20
2018-08-24T18:50:44.531Z,21.10
2018-08-24T18:53:11.718Z,21.10
2018-08-24T18:55:38.950Z,21.20
2018-08-24T18:58:06.275Z,21.30
2018-08-24T19:00:33.515Z,21.20
2018-08-24T19:03:00.820Z,21.30
2018-08-24T19:05:28.197Z,21.20
2018-08-24T19:08:01.053Z,21.20
2018-08-24T19:10:30.407Z,21.20
2018-08-24T19:12:57.677Z,21.20
2018-08-24T19:15:25.063Z,21.00
2018-08-24T19:17:58.979Z,21.00
2018-08-24T19:20:32.093Z,20.90
2018-08-24T19:22:59.300Z,20.90
2018-08-24T19:25:26.600Z,20.90
2018-08-24T19:27:59.604Z,21.00
2018-08-24T19:30:32.235Z,20.90
2018-08-24T19:32:59.623Z,21.00
2018-08-24T19:35:27.895Z,20.90
2018-08-24T19:38:01.227Z,20.80
2018-08-24T19:40:34.249Z,20.90
2018-08-24T19:43:01.532Z,21.00
2018-08-24T19:45:29.011Z,20.90
2018-08-24T19:48:02.077Z,20.80
2018-08-24T19:50:29.376Z,20.70
2018-08-24T19:52:56.671Z,20.60
2018-08-24T19:55:23.963Z,20.50
2018-08-24T19:57:56.884Z,20.60
2018-08-24T20:00:24.098Z,20.70
2018-08-24T20:02:51.345Z,20.70
2018-08-24T20:05:18.685Z,20.70
2018-08-24T20:07:51.801Z,20.60
2018-08-24T20:10:19.560Z,20.50
2018-08-24T20:12:47.479Z,20.50
2018-08-24T20:15:20.473Z,20.40
2018-08-24T20:17:47.766Z,20.40
2018-08-24T20:20:15.060Z,20.20
2018-08-24T20:22:42.209Z,20.20
2018-08-24T20:25:09.388Z,20.30
2018-08-24T20:27:36.537Z,20.40
2018-08-24T20:30:04.121Z,20.40
2018-08-24T20:32:31.422Z,20.40
2018-08-24T20:34:58.613Z,20.20
2018-08-24T20:37:25.831Z,20.10
2018-08-24T20:39:53.111Z,20.10
2018-08-24T20:42:20.352Z,20.10
2018-08-24T20:44:47.556Z,20.00
2018-08-24T20:47:14.889Z,20.10
2018-08-24T20:49:42.098Z,20.10
2018-08-24T20:52:09.418Z,20.10
2018-08-24T20:54:36.621Z,20.00
2018-08-24T20:57:04.314Z,20.00
2018-08-24T20:59:31.398Z,20.00
2018-08-24T21:01:58.664Z,20.00
2018-08-24T21:04:25.906Z,20.00
2018-08-24T21:06:53.152Z,19.90
2018-08-24T21:09:20.368Z,19.90
2018-08-24T21:11:47.575Z,19.90
2018-08-24T21:14:14.782Z,19.90
2018-08-24T21:16:41.984Z,19.90
2018-08-24T21:19:09.197Z,19.80
2018-08-24T21:21:36.386Z,19.80
2018-08-24T21:24:03.687Z,19.80
2018-08-24T21:26:30.863Z,19.80
2018-08-24T21:28:57.992Z,19.90
2018-08-24T21:31:25.349Z,19.90
2018-08-24T21:33:52.637Z,19.80
2018-08-24T21:36:19.903Z,19.80
2018-08-24T21:38:48.215Z,19.80
2018-08-24T21:41:15.400Z,19.80
2018-08-24T21:43:42.565Z,19.80
2018-08-24T21:46:09.774Z,19.70
2018-08-24T21:48:37.189Z,19.70
2018-08-24T21:51:04.369Z,19.60
2018-08-24T21:53:31.619Z,19.60
2018-08-24T21:55:59.181Z,19.60
2018-08-24T21:58:26.358Z,19.70
2018-08-24T22:00:53.535Z,19.70
2018-08-24T22:03:20.675Z,19.70
2018-08-24T22:05:47.846Z,19.50
2018-08-24T22:08:15.151Z,19.50
2018-08-24T22:10:42.319Z,19.50
2018-08-24T22:13:09.460Z,19.60
2018-08-24T22:15:36.626Z,19.60
2018-08-24T22:18:04.755Z,19.60
2018-08-24T22:20:31.937Z,19.70
2018-08-24T22:22:59.164Z,19.70
2018-08-24T22:25:26.303Z,19.70
2018-08-24T22:27:53.453Z,19.60
2018-08-24T22:30:21.613Z,19.60
2018-08-24T22:32:48.868Z,19.40
2018-08-24T22:35:15.962Z,19.40
2018-08-24T22:37:43.080Z,19.20
2018-08-24T22:40:10.320Z,19.30
2018-08-24T22:42:39.040Z,19.30
2018-08-24T22:45:06.232Z,19.30
2018-08-24T22:47:33.401Z,19.40
2018-08-24T22:50:00.585Z,19.40
2018-08-24T22:52:27.721Z,19.40
2018-08-24T22:54:54.891Z,19.30
2018-08-24T22:57:22.032Z,19.30
2018-08-24T22:59:49.291Z,19.40
2018-08-24T23:02:16.432Z,19.40
2018-08-24T23:04:43.543Z,19.40
2018-08-24T23:07:10.695Z,19.40
2018-08-24T23:09:37.893Z,19.30
2018-08-24T23:12:05.207Z,19.20
2018-08-24T23:14:32.341Z,19.20
2018-08-24T23:16:59.580Z,19.10
2018-08-24T23:19:26.787Z,19.10
2018-08-24T23:21:53.927Z,19.20
2018-08-24T23:24:21.834Z,19.20
2018-08-24T23:26:48.971Z,19.10
2018-08-24T23:29:16.120Z,19.20
2018-08-24T23:31:43.299Z,19.30
2018-08-24T23:34:10.646Z,19.20
2018-08-24T23:39:12.373Z,19.20
2018-08-24T23:41:39.548Z,19.20
2018-08-24T23:44:08.276Z,19.20
2018-08-24T23:46:35.590Z,19.20
2018-08-24T23:49:02.909Z,19.30
2018-08-24T23:51:30.268Z,19.20
2018-08-24T23:53:57.865Z,19.10
2018-08-24T23:56:24.976Z,19.00
2018-08-24T23:58:52.363Z,19.10
